Strathcarron, United Kingdom
Current Conditions -  °F | °C
As of 9:50 PM on Monday 22 Dec 2014 (Local Time) from EGPL Reporting Station
Scattered Clouds Scattered Clouds  
Wind Chill: 36°   Ceiling: Unl
Heat Index: 45°   Visibility: 6mi
Dew Point: 39°   Wind: 24mph
Humidity: 81%   Direction: 250°WSW
Pressure: 29.53"   Gusts: NA
Location:  57.41°N, 5.81°W
Report Text: EGPL 222150Z AUTO 25021KT 9999 SCT037/// 07/04 Q1000
Loading
Personal Weather Stations






























Interactive Weather Map New forecast layout! Learn more

10-Day Weather Forecast

Advertisements
Track Severe Weather on mobile